Time;durP1;ratioP1;P1;durP2;ratioP2;P2;SDS_P1;SDS_P2;PMS_P1;PMS_P2;Temp;Humidity;BMP_temperature;BMP_pressure;BME280_temperature;BME280_humidity;BME280_pressure;Samples;Min_cycle;Max_cycle;Signal;HPM_P1;HPM_P2
2022/08/04 00:30:03;;;;;;;;;1.00;1.00;;;;;28.36;69.82;100469.59;6278675;22;46351;31
2022/08/04 02:13:14;;;;;;;;;3.00;2.00;;;;;27.27;74.63;100201.75;6267293;22;45830;-96
2022/08/04 02:16:06;;;;;;;;;2.00;2.00;;;;;27.23;74.86;100179.47;6207681;23;44825;-96
2022/08/04 03:14:26;;;;;;;;;3.00;1.33;;;;;26.32;77.18;100048.63;6356075;22;44760;-96
2022/08/04 05:34:29;;;;;;;;;1.00;1.00;;;;;25.24;80.64;100069.63;6283223;22;45366;-95
2022/08/04 05:36:58;;;;;;;;;2.00;2.00;;;;;25.28;80.80;100063.28;6309367;22;45269;-93
2022/08/04 05:39:28;;;;;;;;;4.33;3.00;;;;;25.29;80.77;100044.41;6305874;22;46639;-93
2022/08/04 05:41:55;;;;;;;;;3.00;2.00;;;;;25.30;80.87;100042.63;6303248;22;45333;-95
2022/08/04 05:44:23;;;;;;;;;3.00;2.67;;;;;25.30;80.19;100045.31;6330464;22;45285;-94
2022/08/04 05:46:51;;;;;;;;;1.67;1.67;;;;;25.36;80.89;100055.00;6305857;22;45250;-94
2022/08/04 05:49:19;;;;;;;;;4.00;3.00;;;;;25.37;80.80;100035.25;6330363;22;47410;-95
2022/08/04 05:51:47;;;;;;;;;1.00;1.00;;;;;25.47;81.07;100031.41;6305652;22;45334;-95
2022/08/04 05:54:15;;;;;;;;;2.00;1.00;;;;;25.52;80.93;100020.50;6304221;22;45379;-95
2022/08/04 05:56:41;;;;;;;;;2.67;2.00;;;;;25.59;80.67;100032.84;6329469;22;45369;-94
2022/08/04 05:59:09;;;;;;;;;2.00;2.00;;;;;25.64;81.06;100051.53;6277989;22;47313;-95
2022/08/04 06:01:38;;;;;;;;;1.33;1.00;;;;;25.64;80.34;100051.53;6329791;22;45346;-95
2022/08/04 06:04:04;;;;;;;;;3.67;2.00;;;;;25.64;80.33;100038.09;6334184;22;45230;-94
2022/08/04 06:06:30;;;;;;;;;2.00;2.00;;;;;25.69;80.59;100037.97;6284778;22;45283;-94
2022/08/04 06:08:56;;;;;;;;;2.00;2.00;;;;;25.70;80.63;100051.34;6340238;22;47532;-95
2022/08/04 06:11:26;;;;;;;;;2.00;1.00;;;;;25.72;80.24;100075.50;6334174;22;45284;-95
2022/08/04 06:13:57;;;;;;;;;2.00;1.00;;;;;25.70;80.20;100067.47;6333418;22;45332;-94
2022/08/04 06:16:25;;;;;;;;;2.00;2.00;;;;;25.73;80.39;100079.94;6287715;22;45297;-95
2022/08/04 06:18:56;;;;;;;;;3.00;2.00;;;;;25.72;80.09;100078.19;6286561;22;46931;-95
2022/08/04 06:21:27;;;;;;;;;2.67;1.00;;;;;25.72;79.70;100092.47;6287766;22;45295;-95
2022/08/04 06:23:54;;;;;;;;;1.00;1.00;;;;;25.67;80.19;100078.28;6339692;22;45262;-92
2022/08/04 06:26:21;;;;;;;;;2.00;1.00;;;;;25.69;80.26;100079.16;6313553;22;45511;-94
2022/08/04 06:28:50;;;;;;;;;3.33;3.33;;;;;25.76;80.09;100085.25;6339915;22;47407;-93
2022/08/04 06:34:06;;;;;;;;;1.67;0.00;;;;;25.78;80.47;100078.03;6314903;22;45385;-94
2022/08/04 06:36:36;;;;;;;;;2.67;1.00;;;;;25.77;80.75;100074.44;6340171;22;45296;-94
2022/08/04 06:39:03;;;;;;;;;1.00;1.00;;;;;25.80;80.32;100078.00;6339771;22;47536;-95
2022/08/04 06:41:29;;;;;;;;;1.00;1.00;;;;;25.82;80.79;100084.19;6341230;22;46025;-93
2022/08/04 06:44:00;;;;;;;;;2.33;1.00;;;;;25.87;80.96;100082.25;6345277;22;45317;-93
2022/08/04 06:46:28;;;;;;;;;0.67;0.67;;;;;25.94;80.65;100081.16;6309923;22;45241;-92
2022/08/04 06:48:54;;;;;;;;;1.67;1.67;;;;;25.99;80.70;100087.28;6330267;22;48301;-94
2022/08/04 06:51:21;;;;;;;;;1.67;1.67;;;;;26.07;80.70;100088.84;6330295;22;45778;-94
2022/08/04 06:53:47;;;;;;;;;0.00;0.00;;;;;26.21;80.43;100108.13;6333912;22;45253;-94
2022/08/04 06:56:15;;;;;;;;;1.00;0.00;;;;;26.38;80.47;100114.78;6344753;22;45475;-94
2022/08/04 06:58:42;;;;;;;;;0.00;0.00;;;;;26.50;80.20;100121.63;6334583;22;46923;-95
2022/08/04 07:01:08;;;;;;;;;1.00;0.00;;;;;26.66;80.06;100131.91;6330588;22;45508;-94
2022/08/04 07:03:33;;;;;;;;;3.67;2.00;;;;;26.79;79.82;100137.78;6277327;22;45292;-94
2022/08/04 07:06:00;;;;;;;;;0.67;0.67;;;;;26.91;79.85;100146.34;6330941;22;45297;-94
2022/08/04 07:08:25;;;;;;;;;1.00;1.00;;;;;27.04;79.74;100154.91;6330327;22;47998;-94
2022/08/04 07:10:52;;;;;;;;;0.00;0.00;;;;;27.13;79.41;100170.81;6277640;22;45326;-95
2022/08/04 07:13:19;;;;;;;;;2.00;2.00;;;;;27.19;79.83;100167.91;6277571;22;45338;-94
2022/08/04 07:15:47;;;;;;;;;1.33;1.00;;;;;27.25;79.00;100195.56;6285672;22;45293;-95
2022/08/04 07:18:12;;;;;;;;;1.00;1.00;;;;;27.28;79.25;100200.84;6287836;22;47027;-94
2022/08/04 07:20:45;;;;;;;;;1.00;1.00;;;;;27.33;79.24;100201.56;6314441;22;45340;-93
2022/08/04 07:23:16;;;;;;;;;0.67;0.00;;;;;27.38;78.67;100215.78;6332433;22;45479;-94
2022/08/04 07:25:42;;;;;;;;;0.00;0.00;;;;;27.45;78.56;100238.00;6281847;22;45382;-93
2022/08/04 07:28:07;;;;;;;;;1.00;1.00;;;;;27.42;78.13;100238.97;6279093;22;46577;-94
2022/08/04 07:30:34;;;;;;;;;1.00;1.00;;;;;27.38;78.75;100234.63;6331438;22;45794;-94
2022/08/04 07:33:01;;;;;;;;;2.00;1.67;;;;;27.37;78.16;100251.72;6331643;22;45274;-94
2022/08/04 07:35:28;;;;;;;;;2.00;0.67;;;;;27.29;78.27;100251.13;6279350;22;45309;-94
2022/08/04 07:37:53;;;;;;;;;2.67;1.00;;;;;27.27;78.80;100261.91;6278706;22;47208;-94
2022/08/04 07:40:18;;;;;;;;;1.00;1.00;;;;;27.24;78.70;100248.53;6279904;22;45447;-95
2022/08/04 07:42:45;;;;;;;;;0.00;0.00;;;;;27.14;79.36;100214.78;6278783;22;45233;-94
2022/08/04 07:45:10;;;;;;;;;0.00;0.00;;;;;27.11;79.75;100199.59;6280791;22;45386;-94
2022/08/04 07:47:38;;;;;;;;;2.67;1.00;;;;;27.10;79.99;100220.25;6280157;22;46946;-94
2022/08/04 07:50:05;;;;;;;;;0.67;0.00;;;;;27.11;79.75;100203.13;6306215;22;45568;-93
2022/08/04 07:52:31;;;;;;;;;0.00;0.00;;;;;27.16;80.27;100208.38;6311852;22;45252;-94
2022/08/04 07:54:57;;;;;;;;;1.00;1.00;;;;;27.20;80.53;100185.81;6287482;22;45350;-93
2022/08/04 07:57:22;;;;;;;;;1.00;0.33;;;;;27.21;80.31;100182.19;6287527;22;48358;-93
2022/08/04 07:59:48;;;;;;;;;1.00;0.33;;;;;27.23;80.75;100160.59;6279533;22;45585;-94
2022/08/04 08:02:14;;;;;;;;;0.00;0.00;;;;;27.23;80.23;100187.53;6278634;22;45226;-94
2022/08/04 08:04:41;;;;;;;;;3.00;0.33;;;;;27.26;80.30;100194.63;6285007;22;45470;-94
2022/08/04 08:07:07;;;;;;;;;0.00;0.00;;;;;27.18;80.22;100195.78;6287140;22;47187;-94
2022/08/04 08:09:33;;;;;;;;;1.33;0.33;;;;;27.16;79.71;100229.09;6287878;22;45287;-94
2022/08/04 08:11:58;;;;;;;;;0.67;0.00;;;;;27.04;80.10;100233.88;6287567;22;45336;-92
2022/08/04 08:14:24;;;;;;;;;0.00;0.00;;;;;26.96;80.12;100236.81;6262189;22;45281;-94
2022/08/04 08:16:50;;;;;;;;;0.67;0.67;;;;;26.87;80.22;100224.56;6288113;22;47463;-93
2022/08/04 08:19:15;;;;;;;;;0.00;0.00;;;;;26.78;80.43;100204.19;6289283;22;45325;-94
2022/08/04 08:21:48;;;;;;;;;0.67;0.00;;;;;26.76;80.55;100214.13;6313684;22;45257;-95
2022/08/04 08:24:15;;;;;;;;;0.33;0.00;;;;;26.75;80.88;100196.19;6288296;22;45350;-94
2022/08/04 08:26:40;;;;;;;;;3.00;0.00;;;;;26.75;80.99;100188.13;6312799;22;46609;-94
2022/08/04 08:29:06;;;;;;;;;0.00;0.00;;;;;26.81;80.89;100197.81;6287624;22;45262;-94
2022/08/04 08:31:33;;;;;;;;;0.67;0.00;;;;;26.86;80.94;100197.66;6288286;22;45492;-94
2022/08/04 08:33:59;;;;;;;;;0.33;0.33;;;;;26.95;81.17;100197.38;6281521;22;45278;-94
2022/08/04 08:36:38;;;;;;;;;1.00;0.00;;;;;27.13;81.37;100186.97;6281513;22;48075;-93
2022/08/04 08:39:10;;;;;;;;;0.00;0.00;;;;;27.25;81.56;100166.81;6279401;22;45290;-94
2022/08/04 08:42:10;;;;;;;;;1.00;1.00;;;;;27.42;81.01;100162.66;6306507;22;45276;-94
2022/08/04 08:45:13;;;;;;;;;0.00;0.00;;;;;27.54;80.94;100178.41;6235854;22;45691;-95
2022/08/04 08:48:16;;;;;;;;;0.00;0.00;;;;;27.69;80.67;100181.47;6184587;22;48094;-94
2022/08/04 08:51:02;;;;;;;;;1.00;0.33;;;;;27.84;80.51;100190.84;6210511;22;45365;-95
2022/08/04 08:53:31;;;;;;;;;1.00;1.00;;;;;28.00;80.41;100195.69;6210107;22;45495;-94
2022/08/04 08:56:23;;;;;;;;;0.00;0.00;;;;;28.15;79.98;100240.09;6210216;22;45431;-94
2022/08/04 08:59:07;;;;;;;;;0.00;0.00;;;;;28.21;79.72;100256.06;6189349;22;47251;-94
2022/08/04 09:01:35;;;;;;;;;1.00;0.00;;;;;28.26;79.60;100274.78;6193071;22;45259;-94
2022/08/04 09:04:41;;;;;;;;;0.00;0.00;;;;;28.35;79.46;100287.03;6219659;22;45335;-95
2022/08/04 09:07:30;;;;;;;;;1.00;0.00;;;;;28.41;79.31;100284.13;6211838;22;45454;-94
2022/08/04 09:10:02;;;;;;;;;0.00;0.00;;;;;28.46;79.42;100283.97;6202686;22;45636;-93
2022/08/04 09:12:55;;;;;;;;;0.00;0.00;;;;;28.54;79.32;100291.78;6209737;22;45370;-94
2022/08/04 09:15:38;;;;;;;;;0.00;0.00;;;;;28.62;79.51;100294.19;6200273;22;45442;-95
2022/08/04 09:18:25;;;;;;;;;0.00;0.00;;;;;28.74;79.29;100303.63;6213063;22;45338;-95
2022/08/04 09:20:58;;;;;;;;;0.00;0.00;;;;;28.84;79.00;100307.75;6234473;22;47277;-94
2022/08/04 09:23:32;;;;;;;;;0.00;0.00;;;;;28.93;79.37;100322.72;6306971;22;45352;-93
2022/08/04 09:26:30;;;;;;;;;0.00;0.00;;;;;29.03;79.03;100335.84;6307935;22;45432;-94
2022/08/04 09:29:31;;;;;;;;;0.00;0.00;;;;;29.16;79.05;100360.59;6211544;22;45537;-93
2022/08/04 09:32:09;;;;;;;;;0.00;0.00;;;;;29.30;78.33;100381.69;6205207;22;47276;-94
2022/08/04 09:34:49;;;;;;;;;0.00;0.00;;;;;29.48;78.55;100395.41;6212187;22;45357;-92
2022/08/04 09:37:50;;;;;;;;;0.00;0.00;;;;;29.64;78.15;100399.25;6220905;22;45462;-94
2022/08/04 09:40:53;;;;;;;;;1.00;0.00;;;;;29.93;78.01;100438.69;6215155;22;45426;-93
2022/08/04 09:43:55;;;;;;;;;0.00;0.00;;;;;30.13;77.55;100455.94;6210992;22;45366;-93
2022/08/04 09:46:29;;;;;;;;;0.00;0.00;;;;;30.18;76.83;100484.56;6185159;22;45663;-93
2022/08/04 09:49:02;;;;;;;;;0.00;0.00;;;;;30.18;76.84;100506.19;6211102;22;45336;-94
2022/08/04 09:51:42;;;;;;;;;0.00;0.00;;;;;30.21;76.78;100522.31;6212346;22;45357;-94
2022/08/04 09:54:18;;;;;;;;;0.00;0.00;;;;;30.26;76.47;100532.94;6220077;22;48025;-95
2022/08/04 09:57:13;;;;;;;;;0.00;0.00;;;;;30.37;76.27;100528.94;6194657;22;46528;-94
2022/08/04 09:59:56;;;;;;;;;0.00;0.00;;;;;30.61;75.99;100553.22;6221009;22;45314;-93
2022/08/04 10:02:37;;;;;;;;;0.00;0.00;;;;;30.82;75.67;100566.81;6232837;22;45379;-96
2022/08/04 10:05:07;;;;;;;;;0.00;0.00;;;;;30.93;75.36;100596.16;6225889;22;46360;-94
2022/08/04 10:08:10;;;;;;;;;0.00;0.00;;;;;30.98;74.75;100613.97;6295071;22;45260;-93
2022/08/04 10:10:46;;;;;;;;;0.00;0.00;;;;;31.03;74.86;100629.19;6293623;22;45332;-94
2022/08/04 10:13:21;;;;;;;;;0.00;0.00;;;;;31.00;74.04;100647.31;6288104;22;45242;-94
2022/08/04 10:16:14;;;;;;;;;0.00;0.00;;;;;30.94;73.95;100654.81;6282212;22;48196;-95
2022/08/04 10:18:55;;;;;;;;;0.00;0.00;;;;;30.86;74.32;100641.56;6273469;22;45314;-95
2022/08/04 10:22:00;;;;;;;;;0.00;0.00;;;;;30.94;74.32;100635.84;6276487;22;45206;-94
2022/08/04 10:24:59;;;;;;;;;0.00;0.00;;;;;31.02;74.57;100647.25;6276813;22;45336;-94
2022/08/04 10:27:45;;;;;;;;;0.00;0.00;;;;;30.92;74.08;100652.16;6273028;22;47598;-93
2022/08/04 10:30:13;;;;;;;;;0.00;0.00;;;;;30.83;74.07;100652.53;6274385;22;45341;-93
2022/08/04 10:32:50;;;;;;;;;0.00;0.00;;;;;31.18;74.92;100627.63;6252402;22;45328;-94
2022/08/04 10:35:22;;;;;;;;;0.00;0.00;;;;;31.96;74.74;100626.84;6274036;22;45284;-96
2022/08/04 10:38:12;;;;;;;;;1.33;1.33;;;;;32.70;74.09;100656.00;6274038;22;47152;-95
2022/08/04 10:40:55;;;;;;;;;0.00;0.00;;;;;33.33;72.58;100701.78;6282545;22;45819;-95
2022/08/04 10:43:47;;;;;;;;;0.00;0.00;;;;;34.49;73.16;100711.97;6284434;22;45277;-95
2022/08/04 10:46:29;;;;;;;;;0.00;0.00;;;;;35.64;70.44;100807.19;6280157;22;45289;-93
2022/08/04 10:49:12;;;;;;;;;0.00;0.00;;;;;36.44;68.64;100864.38;6273646;22;47111;-93
2022/08/04 10:51:45;;;;;;;;;0.00;0.00;;;;;36.86;66.41;100946.44;6273211;22;45985;-94
2022/08/04 10:54:20;;;;;;;;;0.00;0.00;;;;;37.38;66.87;100959.59;6275112;22;45341;-96
2022/08/04 10:56:52;;;;;;;;;1.00;0.00;;;;;38.44;64.55;101009.22;6272480;22;45412;-95
2022/08/04 10:59:27;;;;;;;;;1.00;0.00;;;;;40.31;64.92;101015.00;6273095;22;48364;-94
2022/08/04 11:02:06;;;;;;;;;0.00;0.00;;;;;41.44;63.12;101050.16;6272713;22;45352;-94
2022/08/04 11:04:46;;;;;;;;;1.00;1.00;;;;;43.19;60.49;101071.38;6299137;22;45658;-94
2022/08/04 11:07:14;;;;;;;;;0.33;0.00;;;;;44.87;59.83;101086.44;6273536;22;45307;-95
2022/08/04 11:09:42;;;;;;;;;0.00;0.00;;;;;46.51;59.21;101088.69;6273499;22;46937;-95
2022/08/04 11:12:24;;;;;;;;;0.00;0.00;;;;;48.06;48.88;101113.09;6273143;22;45666;-95
2022/08/04 11:15:09;;;;;;;;;0.00;0.00;;;;;49.20;51.42;101115.28;6281227;22;45627;-95
2022/08/04 11:17:39;;;;;;;;;0.00;0.00;;;;;50.45;47.88;101124.00;6283188;22;45258;-95
2022/08/04 11:20:21;;;;;;;;;0.00;0.00;;;;;51.42;46.23;101118.56;6283364;22;47009;-94
2022/08/04 11:22:57;;;;;;;;;1.00;0.00;;;;;52.28;45.56;101115.25;6277149;22;45273;-94
2022/08/04 11:25:28;;;;;;;;;0.00;0.00;;;;;53.12;43.27;101113.69;6274826;22;45273;-95
2022/08/04 11:28:12;;;;;;;;;0.00;0.00;;;;;53.88;41.56;101126.06;6274482;22;45332;-94
2022/08/04 11:30:55;;;;;;;;;0.67;0.00;;;;;54.61;40.94;101130.06;6273734;22;47204;-95
2022/08/04 11:33:57;;;;;;;;;0.00;0.00;;;;;55.35;40.50;101130.09;6273756;22;45557;-95
2022/08/04 11:36:51;;;;;;;;;0.00;0.00;;;;;56.10;39.40;101129.66;6247816;22;45243;-95
2022/08/04 11:39:31;;;;;;;;;1.00;1.00;;;;;56.74;38.71;101125.88;6248638;22;45482;-95
2022/08/04 11:42:14;;;;;;;;;0.00;0.00;;;;;57.32;37.66;101136.91;6250022;22;47528;-95
2022/08/04 11:44:48;;;;;;;;;0.00;0.00;;;;;57.76;36.77;101140.69;6257027;22;45245;-95
2022/08/04 11:47:41;;;;;;;;;0.00;0.00;;;;;58.17;36.17;101143.72;6256582;22;45297;-96
2022/08/04 11:50:25;;;;;;;;;0.00;0.00;;;;;58.60;35.91;101144.53;6291999;22;44754;-95
2022/08/04 11:52:53;;;;;;;;;0.33;0.00;;;;;59.03;34.55;101138.69;6266788;22;46997;-95
2022/08/04 11:55:21;;;;;;;;;0.67;0.67;;;;;58.43;34.01;101141.53;6294236;22;45225;-96
2022/08/04 11:57:47;;;;;;;;;2.00;1.00;;;;;58.53;34.27;101137.28;6287913;22;45348;-95
2022/08/04 12:00:16;;;;;;;;;0.00;0.00;;;;;58.14;34.02;101135.75;6283553;22;45246;-96
2022/08/04 12:02:50;;;;;;;;;0.67;0.67;;;;;57.65;33.93;101137.59;6283732;22;48132;-95
2022/08/04 12:05:20;;;;;;;;;0.00;0.00;;;;;57.93;33.79;101149.34;6283246;22;45337;-95
2022/08/04 12:08:07;;;;;;;;;2.00;1.00;;;;;58.13;34.04;101150.94;6253115;22;45463;-95
2022/08/04 12:10:54;;;;;;;;;0.00;0.00;;;;;58.78;33.22;101141.78;6275150;22;45330;-96
2022/08/04 12:13:40;;;;;;;;;0.00;0.00;;;;;59.50;33.32;101146.44;6274189;22;48496;-95
2022/08/04 12:16:21;;;;;;;;;0.00;0.00;;;;;59.89;32.78;101142.91;6249876;22;45662;-95
2022/08/04 12:18:57;;;;;;;;;0.67;0.00;;;;;60.57;32.39;101142.03;6249804;22;45221;-94
2022/08/04 12:21:43;;;;;;;;;0.00;0.00;;;;;61.10;31.46;101137.97;6276432;22;45309;-93
2022/08/04 12:24:17;;;;;;;;;1.67;1.00;;;;;61.82;31.64;101139.00;6254447;22;48445;-96
2022/08/04 12:26:55;;;;;;;;;0.33;0.33;;;;;61.92;31.07;101138.28;6258592;22;45387;-95
2022/08/04 12:29:27;;;;;;;;;1.67;0.00;;;;;62.05;31.34;101134.09;6285021;22;45328;-95
2022/08/04 12:31:57;;;;;;;;;3.67;1.00;;;;;61.69;30.47;101134.66;6276363;22;45336;-95
2022/08/04 12:34:42;;;;;;;;;0.00;0.00;;;;;61.07;30.03;101131.97;6279525;22;47291;-95
2022/08/04 12:37:32;;;;;;;;;1.00;0.00;;;;;60.85;30.35;101133.69;6307222;22;45210;-96
2022/08/04 12:40:02;;;;;;;;;0.33;0.33;;;;;60.57;30.79;101129.88;6331082;22;45378;-95
2022/08/04 12:42:43;;;;;;;;;0.00;0.00;;;;;59.95;31.09;101138.22;6279012;22;45242;-94
2022/08/04 12:45:10;;;;;;;;;1.67;1.67;;;;;59.96;30.94;101132.28;6304483;22;47339;-94
2022/08/04 12:47:36;;;;;;;;;0.00;0.00;;;;;60.62;31.22;101132.78;6307286;22;45312;-96
2022/08/04 12:50:03;;;;;;;;;0.00;0.00;;;;;61.26;30.44;101124.00;6332593;22;45214;-95
2022/08/04 12:52:40;;;;;;;;;1.00;1.00;;;;;61.73;30.22;101134.97;6333311;22;45359;-96
2022/08/04 12:55:07;;;;;;;;;0.00;0.00;;;;;62.29;30.51;101130.03;6282167;22;47069;-95
2022/08/04 12:57:34;;;;;;;;;0.00;0.00;;;;;62.98;28.48;101126.44;6339406;22;45329;-92
2022/08/04 13:00:00;;;;;;;;;0.00;0.00;;;;;63.52;28.80;101120.59;6312809;22;45337;-92
2022/08/04 13:02:46;;;;;;;;;0.00;0.00;;;;;63.97;28.63;101129.50;6312049;22;45388;-91
2022/08/04 13:05:14;;;;;;;;;0.00;0.00;;;;;64.37;28.41;101123.16;6285666;22;48460;-92
2022/08/04 13:07:45;;;;;;;;;0.33;0.33;;;;;64.54;27.67;101133.41;6321861;22;45292;-93
2022/08/04 13:10:13;;;;;;;;;3.33;1.67;;;;;64.76;28.29;101137.84;6315781;22;45383;-92
2022/08/04 13:12:41;;;;;;;;;0.33;0.33;;;;;65.03;27.35;101136.56;6308234;22;45448;-92
2022/08/04 13:15:16;;;;;;;;;0.00;0.00;;;;;65.32;27.58;101129.28;6303354;22;46026;-93
2022/08/04 13:17:49;;;;;;;;;0.33;0.33;;;;;65.62;26.92;101132.25;6330382;22;45384;-93
2022/08/04 13:20:14;;;;;;;;;0.33;0.33;;;;;65.87;26.98;101124.59;6306940;22;45461;-93
2022/08/04 13:22:41;;;;;;;;;0.67;0.67;;;;;66.19;26.21;101130.91;6330029;22;45316;-92
2022/08/04 13:25:06;;;;;;;;;3.33;1.00;;;;;66.53;26.05;101126.22;6328679;22;48272;-91
2022/08/04 13:27:32;;;;;;;;;1.67;1.67;;;;;66.26;26.92;101121.97;6304099;22;45702;-92
2022/08/04 13:29:58;;;;;;;;;0.33;0.33;;;;;66.11;25.97;101121.78;6305035;22;45291;-92
2022/08/04 13:32:24;;;;;;;;;2.00;0.67;;;;;66.19;26.27;101117.44;6308413;22;45324;-92
2022/08/04 13:34:53;;;;;;;;;1.00;1.00;;;;;66.30;26.40;101117.31;6337143;22;47463;-92
2022/08/04 13:37:23;;;;;;;;;1.00;1.00;;;;;66.50;26.11;101112.56;6314004;22;45477;-92
2022/08/04 13:39:49;;;;;;;;;1.00;1.00;;;;;66.63;26.23;101103.19;6311780;22;45228;-92
2022/08/04 13:42:16;;;;;;;;;0.00;0.00;;;;;66.79;26.44;101110.75;6311767;22;45309;-93
2022/08/04 13:44:48;;;;;;;;;0.33;0.33;;;;;66.93;26.10;101113.69;6336330;22;48038;-93
2022/08/04 13:47:19;;;;;;;;;1.00;1.00;;;;;66.98;26.00;101116.47;6334708;22;46317;-92
2022/08/04 13:50:22;;;;;;;;;0.50;0.00;;;;;67.04;26.08;101114.44;6332997;22;45249;-91
2022/08/04 13:52:51;;;;;;;;;1.00;1.00;;;;;67.05;25.80;101110.38;6314556;22;45307;-92
2022/08/04 13:55:30;;;;;;;;;1.00;1.00;;;;;67.10;25.82;101105.44;6313049;22;45380;-91
2022/08/04 13:58:08;;;;;;;;;0.50;0.50;;;;;67.13;25.49;101098.25;6312289;22;45704;-92
2022/08/04 14:00:41;;;;;;;;;1.25;0.75;;;;;67.25;25.67;101109.19;6337148;22;45225;-93
2022/08/04 14:03:08;;;;;;;;;1.25;1.25;;;;;67.20;25.23;101113.00;6282899;22;45481;-94
2022/08/04 14:05:33;;;;;;;;;3.00;1.00;;;;;66.47;25.32;101104.59;6341074;22;47033;-93
2022/08/04 14:08:10;;;;;;;;;0.00;0.00;;;;;64.93;25.93;101099.59;6311833;22;45272;-93
2022/08/04 14:10:36;;;;;;;;;1.00;1.00;;;;;62.88;26.32;101085.47;6337098;22;45399;-91
2022/08/04 14:13:04;;;;;;;;;1.00;1.00;;;;;60.99;26.92;101077.44;6329307;22;45341;-91
2022/08/04 14:15:39;;;;;;;;;1.00;1.00;;;;;60.12;27.69;101075.94;6277313;22;48386;-90
2022/08/04 14:18:23;;;;;;;;;1.67;1.67;;;;;60.20;28.07;101075.50;6305694;22;45305;-92
2022/08/04 14:21:05;;;;;;;;;3.00;2.00;;;;;61.21;27.96;101061.50;6303661;22;45324;-90
2022/08/04 14:23:52;;;;;;;;;2.00;1.00;;;;;61.91;27.19;101063.59;6303651;22;45365;-90
2022/08/04 14:26:34;;;;;;;;;1.00;1.00;;;;;61.93;27.15;101068.16;6303853;22;46438;-93
2022/08/04 14:29:14;;;;;;;;;1.00;1.00;;;;;61.83;27.92;101066.94;6333538;22;45347;-91
2022/08/04 14:31:40;;;;;;;;;0.67;0.67;;;;;61.80;27.92;101062.66;6304337;22;45313;-93
2022/08/04 14:34:06;;;;;;;;;2.67;2.00;;;;;62.15;27.42;101070.84;6305739;22;45253;-95
2022/08/04 14:36:41;;;;;;;;;1.00;1.00;;;;;62.27;27.08;101078.34;6308467;22;45287;-92
2022/08/04 14:39:09;;;;;;;;;0.67;0.00;;;;;62.02;27.65;101070.19;6313061;22;45379;-91
2022/08/04 14:41:47;;;;;;;;;2.00;2.00;;;;;61.69;28.08;101078.75;6309724;22;45274;-93
2022/08/04 14:44:12;;;;;;;;;0.67;0.67;;;;;61.22;27.72;101068.88;6310028;22;45383;-92
2022/08/04 14:46:52;;;;;;;;;1.00;1.00;;;;;60.17;28.14;101070.34;6328909;22;48083;-93
2022/08/04 14:49:18;;;;;;;;;1.33;1.33;;;;;58.11;28.17;101068.47;6277541;22;45290;-95
2022/08/04 14:51:50;;;;;;;;;2.67;2.00;;;;;56.14;29.27;101077.44;6277093;22;45677;-95
2022/08/04 14:54:16;;;;;;;;;2.33;2.00;;;;;54.52;29.92;101069.53;6280687;22;45374;-94
2022/08/04 14:56:51;;;;;;;;;0.33;0.00;;;;;52.97;30.09;101066.19;6329925;22;47938;-95
2022/08/04 14:59:17;;;;;;;;;1.67;0.67;;;;;51.33;31.28;101058.25;6304725;22;45962;-95
2022/08/04 15:01:44;;;;;;;;;1.33;1.33;;;;;49.76;32.19;101066.09;6279208;22;45348;-95
2022/08/04 15:04:10;;;;;;;;;3.00;1.00;;;;;48.39;33.49;101062.16;6305824;22;44755;-96
2022/08/04 15:06:36;;;;;;;;;0.00;0.00;;;;;47.20;34.46;101063.97;6304458;22;46242;-95
2022/08/04 15:09:06;;;;;;;;;2.00;1.00;;;;;46.04;35.01;101076.81;6277255;22;45338;-93
2022/08/04 15:11:31;;;;;;;;;1.00;1.00;;;;;44.97;35.45;101078.94;6276941;22;45229;-93
2022/08/04 15:13:58;;;;;;;;;2.33;1.67;;;;;44.03;37.30;101089.66;6311701;22;45338;-93
2022/08/04 15:16:26;;;;;;;;;1.67;1.67;;;;;43.19;37.81;101076.91;6285296;22;47724;-92
2022/08/04 15:18:52;;;;;;;;;2.33;2.33;;;;;42.45;38.85;101085.97;6306285;22;45366;-94
2022/08/04 15:21:20;;;;;;;;;2.00;1.00;;;;;41.81;39.30;101083.06;6277646;22;45402;-94
2022/08/04 15:23:45;;;;;;;;;1.67;1.00;;;;;41.27;40.89;101091.97;6303319;22;45365;-93
2022/08/04 15:26:16;;;;;;;;;2.00;2.00;;;;;40.76;41.75;101089.53;6332152;22;47276;-95
2022/08/04 15:28:49;;;;;;;;;1.00;1.00;;;;;40.24;42.42;101085.19;6286726;22;45373;-95
2022/08/04 15:31:17;;;;;;;;;2.00;1.67;;;;;39.80;42.63;101093.91;6282533;22;45338;-95
2022/08/04 15:33:43;;;;;;;;;2.00;2.00;;;;;39.35;43.54;101091.69;6311884;22;45563;-96
2022/08/04 15:36:25;;;;;;;;;2.00;2.00;;;;;38.87;44.38;101088.59;6340599;22;47263;-95
2022/08/04 15:39:19;;;;;;;;;2.00;2.00;;;;;38.40;45.08;101094.53;6341413;22;45190;-95
2022/08/04 15:42:12;;;;;;;;;2.33;2.33;;;;;38.00;46.38;101098.94;6344896;22;44755;-95
2022/08/04 15:45:21;;;;;;;;;4.00;2.00;;;;;37.59;46.53;101106.13;6350592;22;45443;-96
2022/08/04 15:48:01;;;;;;;;;2.00;2.00;;;;;37.13;47.12;101098.00;6330395;22;46108;-96
2022/08/04 15:50:27;;;;;;;;;4.00;3.33;;;;;36.77;47.53;101098.31;6318858;22;46054;-96
2022/08/04 15:52:59;;;;;;;;;1.00;1.00;;;;;36.40;48.90;101103.25;6344492;22;45270;-95
2022/08/04 15:55:31;;;;;;;;;1.00;1.00;;;;;36.08;49.13;101110.47;6321338;22;45253;-96
2022/08/04 19:06:32;;;;;;;;;0.00;0.00;;;;;24.94;96.67;99990.75;5109500;27;44716;-96
2022/08/04 19:16:33;;;;;;;;;3.00;2.00;;;;;25.26;95.81;99976.47;5334215;22;45916;-96
2022/08/04 19:19:02;;;;;;;;;1.00;1.00;;;;;25.45;95.37;100009.06;5090638;27;45371;-96
2022/08/04 19:21:29;;;;;;;;;2.00;2.00;;;;;25.56;94.29;100035.63;5357680;22;45085;-96
2022/08/04 19:23:54;;;;;;;;;1.00;1.00;;;;;25.61;94.95;100030.13;5138113;27;45693;-96
2022/08/04 19:26:21;;;;;;;;;3.00;2.00;;;;;25.67;93.93;100052.31;5137209;27;46342;-96
2022/08/04 19:28:47;;;;;;;;;1.00;1.00;;;;;25.72;94.27;100049.47;5107829;27;45627;-96
2022/08/04 19:31:13;;;;;;;;;1.67;1.67;;;;;25.72;94.14;100059.38;5108494;27;45441;-96
2022/08/04 19:33:40;;;;;;;;;1.67;1.67;;;;;25.79;93.37;100077.09;5106011;27;45654;-96
2022/08/04 19:36:06;;;;;;;;;4.00;3.00;;;;;25.79;93.46;100074.41;5112484;27;46631;-96
2022/08/04 19:38:33;;;;;;;;;3.67;1.33;;;;;25.77;93.15;100077.13;5110637;27;45457;-95
2022/08/04 19:40:59;;;;;;;;;1.00;1.00;;;;;25.81;92.33;100090.50;5117848;27;44773;-95
2022/08/04 19:43:25;;;;;;;;;4.67;1.67;;;;;25.81;92.14;100088.69;5109992;27;45679;-96
2022/08/04 19:45:50;;;;;;;;;1.00;0.67;;;;;25.81;92.32;100079.75;5092481;27;47524;-95
2022/08/04 19:48:21;;;;;;;;;1.33;1.33;;;;;25.83;91.74;100086.84;5111696;27;45371;-96
2022/08/04 19:50:47;;;;;;;;;0.67;0.67;;;;;25.72;92.04;100076.34;5125030;22;46739;-96
2022/08/04 19:53:13;;;;;;;;;2.00;1.00;;;;;25.78;91.05;100091.47;5092435;27;45312;-96
2022/08/04 19:55:38;;;;;;;;;5.00;2.00;;;;;25.76;91.16;100104.06;5061829;28;47364;-96
2022/08/04 19:58:05;;;;;;;;;1.00;0.33;;;;;25.78;90.71;100118.34;5091295;27;45376;-96
2022/08/04 20:00:30;;;;;;;;;1.00;1.00;;;;;25.66;90.67;100115.06;5105256;27;45267;-96
2022/08/04 20:02:57;;;;;;;;;2.00;1.00;;;;;25.67;90.80;100113.22;5063511;27;45267;-96
2022/08/04 20:05:23;;;;;;;;;1.00;1.00;;;;;25.73;91.36;100133.69;5065328;27;47050;-96
2022/08/04 20:07:49;;;;;;;;;1.00;1.00;;;;;25.72;90.38;100134.63;5070468;27;44815;-96
2022/08/04 20:10:14;;;;;;;;;0.00;0.00;;;;;25.72;91.16;100134.63;5078894;27;45407;-96
2022/08/04 20:12:39;;;;;;;;;1.00;1.00;;;;;25.66;90.28;100133.88;5094710;27;45660;-95
2022/08/04 20:15:07;;;;;;;;;1.00;1.00;;;;;25.64;89.10;100154.50;5084468;27;49375;-96
2022/08/04 20:20:00;;;;;;;;;2.00;2.00;;;;;25.59;88.89;100167.19;5038552;28;45403;-95
2022/08/04 20:22:25;;;;;;;;;1.33;1.33;;;;;25.59;88.66;100180.59;5031483;28;45411;-94
